KRKW/RKW METAR and TAF weather

Enter ICAO airport designator
Station Type Date Time Source
KRKW METAR 2019/12/06 08:55 UTC NOAA

KRKW 060855Z AUTO 00000KT 10SM BKN065 BKN075 OVC090 08/M02 A3014 RMK A01


Station Type Date Time Source
KRKW Decoded METAR 2019/12/06 08:55 UTC NOAA

Station name not available
Dec 06, 2019 - 03:55 AM EST / 2019.12.06 0855 UTC
Wind: Calm:0
Visibility: 10 mile(s):0
Sky conditions: overcast
Temperature: 46 F (8 C)
Dew Point: 28 F (-2 C)
Relative Humidity: 49%
Pressure (altimeter): 30.14 in. Hg (1020 hPa)
ob: KRKW 060855Z AUTO 00000KT 10SM BKN065 BKN075 OVC090 08/M02 A3014 RMK A01
cycle: 9

Station Type Date Time Source
KRKW TAF 2009/08/31 19:50 UTC NOAA

METAR KRKW 311950Z AUTO VRB05KT 10SM CLR 25/13 A3010
RMK AO1 T02500133 $

Example: see airport list